Time;durP1;ratioP1;P1;durP2;ratioP2;P2;SDS_P1;SDS_P2;PMS_P1;PMS_P2;Temp;Humidity;BMP_temperature;BMP_pressure;BME280_temperature;BME280_humidity;BME280_pressure;Samples;Min_cycle;Max_cycle;Signal;HPM_P1;HPM_P2
2023/08/19 00:00:40;;;;;;;12.17;11.10;;;22.10;73.60;;;;;;6228591;28;20231;-80
2023/08/19 00:03:44;;;;;;;11.73;10.90;;;22.10;73.70;;;;;;6226636;28;20366;-84
2023/08/19 00:06:49;;;;;;;12.80;11.80;;;22.10;73.70;;;;;;6235285;28;20246;-84
2023/08/19 00:09:55;;;;;;;13.17;12.13;;;22.00;73.90;;;;;;6228188;28;20392;-81
2023/08/19 00:12:58;;;;;;;12.87;11.90;;;22.00;74.00;;;;;;6221015;28;20246;-83
2023/08/19 00:16:03;;;;;;;16.00;14.90;;;22.00;74.00;;;;;;6229382;28;20610;-83
2023/08/19 00:19:09;;;;;;;14.00;12.80;;;22.00;74.00;;;;;;6234197;28;20235;-83
2023/08/19 00:22:13;;;;;;;13.70;12.50;;;21.90;74.20;;;;;;6241668;28;20230;-83
2023/08/19 00:25:17;;;;;;;13.30;12.17;;;21.90;74.20;;;;;;6234408;28;20231;-83
2023/08/19 00:28:20;;;;;;;11.97;11.13;;;21.90;74.40;;;;;;6242273;28;20258;-82
2023/08/19 00:31:25;;;;;;;12.17;11.13;;;21.90;74.30;;;;;;6241655;28;20240;-81
2023/08/19 00:34:28;;;;;;;13.33;12.33;;;21.80;74.30;;;;;;6241144;28;20230;-81
2023/08/19 00:37:32;;;;;;;12.13;11.23;;;21.80;74.40;;;;;;6241289;28;20333;-82
2023/08/19 00:40:37;;;;;;;14.00;12.60;;;21.70;74.40;;;;;;6239286;28;20245;-83
2023/08/19 00:43:40;;;;;;;14.27;13.27;;;21.70;74.40;;;;;;6240586;28;20281;-82
2023/08/19 00:46:43;;;;;;;12.70;11.90;;;21.70;74.50;;;;;;6230336;28;20241;-81
2023/08/19 00:49:46;;;;;;;13.37;12.47;;;21.70;74.40;;;;;;6250142;28;20250;-75
2023/08/19 00:52:51;;;;;;;12.03;11.23;;;21.70;74.50;;;;;;6221780;28;20315;-83
2023/08/19 00:55:56;;;;;;;12.80;12.00;;;21.70;74.50;;;;;;6238207;28;20238;-84
2023/08/19 00:59:00;;;;;;;12.97;11.93;;;21.60;74.70;;;;;;6227279;28;20977;-85
2023/08/19 01:02:03;;;;;;;13.33;12.43;;;21.60;74.70;;;;;;6227036;28;20315;-82
2023/08/19 01:05:06;;;;;;;11.57;10.87;;;21.50;74.80;;;;;;6240673;28;20241;-80
2023/08/19 01:08:18;;;;;;;12.80;11.80;;;21.50;74.80;;;;;;6210967;28;20322;-81
2023/08/19 01:11:41;;;;;;;13.83;12.63;;;21.50;74.80;;;;;;6239600;28;20670;-82
2023/08/19 01:14:51;;;;;;;12.70;11.70;;;21.50;75.20;;;;;;6226196;28;20983;-83
2023/08/19 01:17:56;;;;;;;13.23;12.33;;;21.40;75.30;;;;;;6226158;28;20250;-80
2023/08/19 01:20:59;;;;;;;13.27;12.37;;;21.40;75.20;;;;;;6239610;28;20238;-83
2023/08/19 01:24:06;;;;;;;14.03;12.63;;;21.40;75.30;;;;;;6238911;28;20235;-80
2023/08/19 01:27:24;;;;;;;13.60;12.50;;;21.40;75.30;;;;;;6222027;28;20254;-82
2023/08/19 01:30:30;;;;;;;12.70;11.70;;;21.30;75.40;;;;;;6214831;28;20802;-82
2023/08/19 01:33:34;;;;;;;13.43;12.33;;;21.30;75.40;;;;;;6235434;28;20733;-84
2023/08/19 01:36:43;;;;;;;13.53;12.20;;;21.30;75.30;;;;;;6231519;28;20251;-82
2023/08/19 01:39:48;;;;;;;12.50;11.70;;;21.30;75.40;;;;;;6236479;28;20322;-83
2023/08/19 01:42:54;;;;;;;12.07;11.20;;;21.20;75.60;;;;;;6238399;28;20269;-82
2023/08/19 01:45:57;;;;;;;13.00;12.00;;;21.20;75.60;;;;;;6231378;28;20238;-82
2023/08/19 01:49:00;;;;;;;13.30;12.30;;;21.10;75.70;;;;;;6230740;28;20258;-82
2023/08/19 01:52:04;;;;;;;12.83;11.97;;;21.10;75.70;;;;;;6231721;28;20402;-80
2023/08/19 01:55:09;;;;;;;13.70;12.43;;;21.10;75.70;;;;;;6239437;28;20269;-82
2023/08/19 01:58:13;;;;;;;13.87;12.60;;;21.10;75.70;;;;;;6231087;28;20716;-79
2023/08/19 02:01:16;;;;;;;13.80;12.80;;;21.10;75.70;;;;;;6239174;28;20347;-81
2023/08/19 02:04:19;;;;;;;13.77;12.57;;;21.00;75.70;;;;;;6237745;28;20230;-83
2023/08/19 02:07:22;;;;;;;13.93;12.73;;;21.00;75.80;;;;;;6231302;28;20250;-82
2023/08/19 02:10:25;;;;;;;13.40;12.40;;;21.00;75.80;;;;;;6231157;28;20380;-83
2023/08/19 02:13:30;;;;;;;13.10;12.20;;;21.00;75.80;;;;;;6232656;28;20231;-82
2023/08/19 02:16:34;;;;;;;14.10;13.10;;;21.00;75.80;;;;;;6237134;28;20254;-81
2023/08/19 02:19:37;;;;;;;13.63;12.57;;;21.00;75.80;;;;;;6210445;28;20239;-81
2023/08/19 02:22:40;;;;;;;12.70;11.70;;;20.90;76.00;;;;;;6237942;28;20238;-81
2023/08/19 02:25:43;;;;;;;13.17;12.30;;;21.00;75.90;;;;;;6238731;28;20735;-81
2023/08/19 02:28:48;;;;;;;14.33;13.30;;;20.90;76.10;;;;;;6235961;28;20246;-83
2023/08/19 02:31:51;;;;;;;14.17;13.17;;;20.90;76.10;;;;;;6243305;28;20727;-83
2023/08/19 02:34:54;;;;;;;15.00;14.00;;;20.90;76.20;;;;;;6230309;28;20258;-84
2023/08/19 02:37:57;;;;;;;16.10;14.60;;;20.80;76.40;;;;;;6236223;28;20329;-80
2023/08/19 02:41:00;;;;;;;14.37;13.27;;;20.80;76.40;;;;;;6237537;28;20245;-82
2023/08/19 02:44:05;;;;;;;13.43;12.27;;;20.80;76.40;;;;;;6230845;28;20261;-84
2023/08/19 02:47:08;;;;;;;15.23;13.97;;;20.80;76.40;;;;;;6225545;28;20825;-83
2023/08/19 02:50:13;;;;;;;14.03;12.77;;;20.80;76.40;;;;;;6219870;28;20231;-84
2023/08/19 02:53:16;;;;;;;14.23;13.07;;;20.80;76.30;;;;;;6237429;28;20457;-83
2023/08/19 02:56:20;;;;;;;15.27;13.97;;;20.80;76.50;;;;;;6238619;28;20775;-83
2023/08/19 02:59:24;;;;;;;15.20;14.10;;;20.70;76.60;;;;;;6236704;28;20246;-82
2023/08/19 03:02:27;;;;;;;15.47;14.17;;;20.70;76.70;;;;;;6228390;28;20342;-84
2023/08/19 03:05:30;;;;;;;14.50;13.20;;;20.70;76.60;;;;;;6234426;28;20234;-83
2023/08/19 03:08:33;;;;;;;15.33;14.13;;;20.70;76.70;;;;;;6230154;28;20239;-83
2023/08/19 03:11:37;;;;;;;14.80;13.60;;;20.70;76.70;;;;;;6229666;28;20812;-84
2023/08/19 03:14:42;;;;;;;14.90;13.70;;;20.60;76.90;;;;;;6236900;28;20234;-84
2023/08/19 03:17:45;;;;;;;15.27;13.70;;;20.60;77.00;;;;;;6236725;28;20322;-82
2023/08/19 03:20:56;;;;;;;13.93;12.87;;;20.60;77.00;;;;;;6234686;28;20239;-81
2023/08/19 03:23:59;;;;;;;16.63;15.13;;;20.50;77.00;;;;;;6236034;28;20238;-81
2023/08/19 03:27:02;;;;;;;14.33;13.43;;;20.50;77.20;;;;;;6228188;28;20337;-80
2023/08/19 03:30:08;;;;;;;17.27;15.63;;;20.50;77.20;;;;;;6225234;28;20292;-81
2023/08/19 03:33:11;;;;;;;18.20;16.63;;;20.50;77.20;;;;;;6223591;28;20320;-80
2023/08/19 03:36:14;;;;;;;17.93;16.37;;;20.50;77.40;;;;;;6235665;28;20449;-80
2023/08/19 03:39:17;;;;;;;15.50;14.30;;;20.50;77.50;;;;;;6236413;28;20332;-81
2023/08/19 03:42:20;;;;;;;16.43;15.23;;;20.50;77.50;;;;;;6230891;28;20314;-82
2023/08/19 03:45:25;;;;;;;16.73;15.30;;;20.50;77.50;;;;;;6233469;28;20234;-79
2023/08/19 03:48:28;;;;;;;17.30;15.83;;;20.50;77.50;;;;;;6234308;28;20254;-81
2023/08/19 03:51:31;;;;;;;15.17;14.00;;;20.50;77.60;;;;;;6223292;28;20306;-81
2023/08/19 03:54:34;;;;;;;15.90;14.70;;;20.50;77.70;;;;;;6233762;28;20238;-81
2023/08/19 03:57:37;;;;;;;15.97;14.77;;;20.50;77.70;;;;;;6235723;28;20798;-82
2023/08/19 04:00:42;;;;;;;14.20;13.10;;;20.50;77.70;;;;;;6235859;28;20238;-80
2023/08/19 04:03:45;;;;;;;16.97;15.50;;;20.40;77.70;;;;;;6235802;28;20243;-82
2023/08/19 04:06:48;;;;;;;17.27;15.60;;;20.40;77.90;;;;;;6231634;28;20782;-79
2023/08/19 04:09:51;;;;;;;16.37;15.07;;;20.40;78.00;;;;;;6220074;28;20710;-83
2023/08/19 04:12:54;;;;;;;20.17;18.30;;;20.40;78.00;;;;;;6198463;28;20233;-83
2023/08/19 04:16:03;;;;;;;18.43;16.93;;;20.40;78.00;;;;;;6234473;28;20241;-82
2023/08/19 04:19:16;;;;;;;;;;;;;;;;;;;;;
2023/08/19 04:22:20;;;;;;;15.63;14.33;;;20.40;78.10;;;;;;6222053;28;20727;-82
2023/08/19 04:25:23;;;;;;;17.47;16.07;;;20.50;78.10;;;;;;6235022;28;20795;-81
2023/08/19 04:28:26;;;;;;;17.27;15.77;;;20.50;77.90;;;;;;6234915;28;20732;-82
2023/08/19 04:31:30;;;;;;;18.90;17.27;;;20.50;77.90;;;;;;6219915;28;20369;-79
2023/08/19 04:34:33;;;;;;;18.97;17.37;;;20.60;77.90;;;;;;6234583;28;20350;-81
2023/08/19 04:37:36;;;;;;;19.40;17.87;;;20.60;77.80;;;;;;6234299;28;20241;-83
2023/08/19 04:40:40;;;;;;;18.27;16.73;;;20.60;77.80;;;;;;6233985;28;20234;-82
2023/08/19 04:43:45;;;;;;;19.33;17.73;;;20.70;77.70;;;;;;6228155;28;20274;-79
2023/08/19 04:46:49;;;;;;;19.73;18.13;;;20.70;77.70;;;;;;6235173;28;20329;-82
2023/08/19 04:49:53;;;;;;;18.17;16.60;;;20.80;77.60;;;;;;6217231;28;20240;-82
2023/08/19 04:52:56;;;;;;;18.73;17.00;;;20.80;77.50;;;;;;6236656;28;20239;-80
2023/08/19 04:56:01;;;;;;;18.60;16.93;;;20.90;77.30;;;;;;6235339;28;20242;-77
2023/08/19 04:59:05;;;;;;;18.30;16.70;;;21.00;77.20;;;;;;6236324;28;20265;-80
2023/08/19 05:02:09;;;;;;;15.43;14.33;;;21.10;77.20;;;;;;6236663;28;20264;-83
2023/08/19 05:05:12;;;;;;;18.40;17.00;;;21.10;77.00;;;;;;6238013;28;21007;-81
2023/08/19 05:08:16;;;;;;;17.43;15.93;;;21.30;76.70;;;;;;6239152;28;20277;-81
2023/08/19 05:11:19;;;;;;;16.63;15.43;;;21.40;76.60;;;;;;6247614;28;20258;-75
2023/08/19 05:14:22;;;;;;;17.43;16.00;;;21.50;76.30;;;;;;6256618;28;20230;-76
2023/08/19 05:17:26;;;;;;;18.10;16.40;;;21.70;76.10;;;;;;6266288;28;20246;-78
2023/08/19 05:20:29;;;;;;;15.93;14.43;;;21.70;75.70;;;;;;6257675;28;20772;-76
2023/08/19 05:23:32;;;;;;;17.30;15.70;;;21.80;75.40;;;;;;6266828;28;20226;-78
2023/08/19 05:26:36;;;;;;;18.53;16.60;;;21.90;75.20;;;;;;6267988;28;20253;-76
2023/08/19 05:29:39;;;;;;;18.57;16.90;;;21.90;75.10;;;;;;6259249;28;20242;-79
2023/08/19 05:32:43;;;;;;;19.10;17.43;;;21.90;75.10;;;;;;6251560;28;20280;-78
2023/08/19 05:35:46;;;;;;;27.67;19.80;;;21.90;75.00;;;;;;6247449;28;20227;-79
2023/08/19 05:38:49;;;;;;;21.10;17.00;;;22.00;74.70;;;;;;6270694;28;20302;-76
2023/08/19 05:41:53;;;;;;;19.23;17.07;;;22.00;74.80;;;;;;6270555;28;20227;-80
2023/08/19 05:44:56;;;;;;;19.63;17.63;;;22.10;74.90;;;;;;6262860;28;20230;-76
2023/08/19 05:48:00;;;;;;;17.43;16.03;;;22.20;74.70;;;;;;6266307;28;20265;-80
2023/08/19 05:51:04;;;;;;;18.87;17.27;;;22.20;74.60;;;;;;6261263;28;20238;-79
2023/08/19 05:54:07;;;;;;;19.50;17.80;;;22.30;74.40;;;;;;6260824;28;20238;-84
2023/08/19 05:57:10;;;;;;;17.90;16.60;;;22.50;74.40;;;;;;6267116;28;20242;-81
2023/08/19 06:00:14;;;;;;;18.87;17.40;;;22.50;74.00;;;;;;6268487;28;20234;-79
2023/08/19 06:03:18;;;;;;;17.27;15.87;;;22.60;73.50;;;;;;6270233;28;20234;-76
2023/08/19 06:06:22;;;;;;;19.43;17.77;;;22.50;73.70;;;;;;6262795;28;20238;-81
2023/08/19 06:09:25;;;;;;;17.27;15.97;;;22.50;73.80;;;;;;6239447;28;20375;-79
2023/08/19 06:12:28;;;;;;;18.47;16.97;;;22.50;74.00;;;;;;6255334;28;20226;-83
2023/08/19 06:15:31;;;;;;;17.47;15.87;;;22.50;74.10;;;;;;6256729;28;20230;-81
2023/08/19 06:18:35;;;;;;;19.77;18.07;;;22.50;74.20;;;;;;6240725;28;20242;-81
2023/08/19 06:21:39;;;;;;;20.50;18.37;;;22.50;74.10;;;;;;6249959;28;20884;-80
2023/08/19 06:24:42;;;;;;;17.47;16.00;;;22.30;74.20;;;;;;6231814;28;20329;-83
2023/08/19 06:27:45;;;;;;;17.33;15.83;;;22.30;74.20;;;;;;6239099;28;20274;-82
2023/08/19 06:30:49;;;;;;;19.00;17.13;;;22.40;74.30;;;;;;6249671;28;20238;-83
2023/08/19 06:33:55;;;;;;;17.77;16.13;;;22.40;74.50;;;;;;6242557;28;20742;-81
2023/08/19 06:37:01;;;;;;;17.47;15.77;;;22.50;74.40;;;;;;6242256;28;20320;-81
2023/08/19 06:40:07;;;;;;;18.70;17.10;;;22.50;74.40;;;;;;6238139;28;20647;-83
2023/08/19 06:43:12;;;;;;;17.27;16.03;;;22.50;74.40;;;;;;6238434;28;20266;-82
2023/08/19 06:46:16;;;;;;;16.77;15.43;;;22.50;74.20;;;;;;6228572;28;20828;-81
2023/08/19 06:49:21;;;;;;;17.07;15.63;;;22.50;74.20;;;;;;6238739;28;20242;-83
2023/08/19 06:52:25;;;;;;;20.80;18.90;;;22.50;74.20;;;;;;6240600;28;20247;-79
2023/08/19 06:55:29;;;;;;;18.63;17.07;;;22.50;74.30;;;;;;6233855;28;20246;-83
2023/08/19 06:58:43;;;;;;;22.80;20.83;;;22.50;74.40;;;;;;6239721;28;20235;-84
2023/08/19 07:01:51;;;;;;;19.43;17.77;;;22.70;74.00;;;;;;6240574;28;20258;-82
2023/08/19 07:04:59;;;;;;;19.53;18.10;;;23.10;73.20;;;;;;6227383;28;20310;-83
2023/08/19 07:08:09;;;;;;;20.67;18.97;;;23.30;72.40;;;;;;6238726;28;20239;-84
2023/08/19 07:11:14;;;;;;;20.07;18.47;;;23.40;71.90;;;;;;6240956;28;20274;-84
2023/08/19 07:14:18;;;;;;;20.80;19.00;;;23.40;71.90;;;;;;6239966;28;20230;-85
2023/08/19 07:17:23;;;;;;;18.03;16.53;;;23.60;72.10;;;;;;6241762;28;20242;-84
2023/08/19 07:20:27;;;;;;;18.63;16.93;;;24.40;70.40;;;;;;6232758;28;20232;-81
2023/08/19 07:23:33;;;;;;;18.70;16.80;;;24.70;69.10;;;;;;6237028;28;20231;-80
2023/08/19 07:26:37;;;;;;;21.20;19.50;;;24.70;68.70;;;;;;6228762;28;20262;-78
2023/08/19 07:29:42;;;;;;;17.43;16.13;;;24.70;68.90;;;;;;6233146;28;20255;-79
2023/08/19 07:32:46;;;;;;;16.07;14.87;;;24.70;68.90;;;;;;6228858;28;20289;-81
2023/08/19 07:35:51;;;;;;;19.13;17.33;;;24.80;68.80;;;;;;6230042;28;20235;-80
2023/08/19 07:38:54;;;;;;;18.50;17.13;;;24.90;68.50;;;;;;6226423;28;20230;-84
2023/08/19 07:41:57;;;;;;;17.07;15.77;;;24.90;68.40;;;;;;6218222;28;20250;-83
2023/08/19 07:45:00;;;;;;;16.10;14.83;;;25.00;69.30;;;;;;6204338;28;20356;-82
2023/08/19 07:48:04;;;;;;;18.63;16.83;;;25.00;69.20;;;;;;6221234;28;20396;-83
2023/08/19 07:51:09;;;;;;;17.13;15.93;;;25.00;69.10;;;;;;6224818;28;20234;-79
2023/08/19 07:54:12;;;;;;;18.33;16.87;;;25.20;68.80;;;;;;6225803;28;20227;-79
2023/08/19 07:57:15;;;;;;;17.87;16.37;;;25.30;68.00;;;;;;6217093;28;20333;-79
2023/08/19 08:00:18;;;;;;;17.83;16.47;;;25.30;67.70;;;;;;6225932;28;20326;-84
2023/08/19 08:03:21;;;;;;;17.97;16.37;;;25.40;67.70;;;;;;6219911;28;20377;-84
2023/08/19 08:06:25;;;;;;;18.03;16.30;;;25.50;67.30;;;;;;6219591;28;20239;-83
2023/08/19 08:09:28;;;;;;;18.80;16.87;;;25.40;67.10;;;;;;6234598;28;20313;-78
2023/08/19 08:12:31;;;;;;;19.03;17.23;;;25.40;66.90;;;;;;6235054;28;20274;-81
2023/08/19 08:15:35;;;;;;;17.03;15.47;;;25.40;67.60;;;;;;6240700;28;20262;-82
2023/08/19 08:18:39;;;;;;;17.17;15.77;;;25.40;67.70;;;;;;6234306;28;20906;-82
2023/08/19 08:21:43;;;;;;;16.30;14.97;;;25.50;67.70;;;;;;6249017;28;20231;-83
2023/08/19 08:24:47;;;;;;;15.50;14.40;;;25.50;67.10;;;;;;6245391;28;20276;-83
2023/08/19 08:27:50;;;;;;;16.80;15.43;;;25.50;67.00;;;;;;6246896;28;20239;-82
2023/08/19 08:30:53;;;;;;;16.93;15.53;;;25.50;66.80;;;;;;6243589;28;20977;-84
2023/08/19 08:33:56;;;;;;;15.63;14.40;;;25.60;66.80;;;;;;6248509;28;20269;-81
2023/08/19 08:37:01;;;;;;;15.50;14.50;;;25.70;66.90;;;;;;6255421;28;20274;-80
2023/08/19 08:40:04;;;;;;;17.00;15.43;;;25.80;66.70;;;;;;6256201;28;20242;-79
2023/08/19 08:43:08;;;;;;;15.40;14.20;;;25.90;66.40;;;;;;6246187;28;20668;-83
2023/08/19 08:46:12;;;;;;;14.60;13.60;;;25.90;66.00;;;;;;6222082;28;20242;-82
2023/08/19 08:49:17;;;;;;;14.23;13.27;;;26.10;65.90;;;;;;6248421;28;20234;-83
2023/08/19 08:52:21;;;;;;;16.53;15.10;;;26.10;65.20;;;;;;6244384;28;20231;-81
2023/08/19 08:55:25;;;;;;;15.67;14.60;;;26.20;65.10;;;;;;6244216;28;20234;-83
2023/08/19 08:58:29;;;;;;;13.93;12.83;;;26.20;65.10;;;;;;6246338;28;20238;-84
2023/08/19 09:01:35;;;;;;;14.30;13.40;;;26.40;65.10;;;;;;6249222;28;20242;-82
2023/08/19 09:04:40;;;;;;;14.37;13.33;;;26.40;64.80;;;;;;6248132;28;20288;-83
2023/08/19 09:07:49;;;;;;;14.97;13.73;;;26.50;64.60;;;;;;6249399;28;20249;-83
2023/08/19 09:10:52;;;;;;;13.67;12.57;;;26.60;64.70;;;;;;6246522;28;20239;-81
2023/08/19 09:14:02;;;;;;;14.20;12.90;;;26.70;64.50;;;;;;6243053;28;20238;-83
2023/08/19 09:17:06;;;;;;;14.03;13.10;;;26.90;63.90;;;;;;6239005;28;20714;-81
2023/08/19 09:20:10;;;;;;;13.30;12.27;;;27.00;63.40;;;;;;6213485;28;20231;-81
2023/08/19 09:23:14;;;;;;;13.60;12.70;;;27.10;63.40;;;;;;6219874;28;20235;-83
2023/08/19 09:26:18;;;;;;;12.77;11.87;;;27.30;63.50;;;;;;6222706;28;20227;-83
2023/08/19 09:29:24;;;;;;;12.67;11.67;;;27.40;62.50;;;;;;6217301;28;20747;-82
2023/08/19 09:32:29;;;;;;;12.67;11.53;;;27.50;61.70;;;;;;6222382;28;20238;-80
2023/08/19 09:35:36;;;;;;;12.43;11.40;;;27.70;61.60;;;;;;6221274;28;20238;-80
2023/08/19 09:39:00;;;;;;;12.82;11.85;;;27.80;61.30;;;;;;6226793;28;20314;-82
2023/08/19 09:42:04;;;;;;;12.40;11.50;;;28.00;61.00;;;;;;6220559;28;20769;-81
2023/08/19 09:45:08;;;;;;;12.80;11.77;;;28.10;61.20;;;;;;6223902;28;20235;-81
2023/08/19 09:48:15;;;;;;;11.27;10.47;;;28.10;60.40;;;;;;6226122;28;20601;-82
2023/08/19 09:51:23;;;;;;;11.80;10.90;;;28.30;60.20;;;;;;6231390;28;20230;-82
2023/08/19 09:54:27;;;;;;;11.55;10.68;;;28.30;59.50;;;;;;6220089;28;20262;-80
2023/08/19 09:57:33;;;;;;;12.47;11.43;;;28.30;59.80;;;;;;6229788;28;20332;-82
2023/08/19 10:00:36;;;;;;;13.68;12.45;;;28.50;59.70;;;;;;6208316;28;20250;-85
2023/08/19 10:03:39;;;;;;;12.55;11.48;;;28.50;59.50;;;;;;6221086;28;20231;-85
2023/08/19 10:06:48;;;;;;;13.25;12.35;;;28.60;59.30;;;;;;6221643;28;20308;-80
2023/08/19 10:09:54;;;;;;;13.37;12.23;;;28.70;59.40;;;;;;6219188;28;20335;-84
2023/08/19 10:12:58;;;;;;;11.60;10.90;;;28.80;59.30;;;;;;6215183;28;20239;-82
2023/08/19 10:16:05;;;;;;;12.20;11.02;;;28.90;59.10;;;;;;6224560;28;20729;-84
2023/08/19 10:19:11;;;;;;;11.07;10.20;;;29.10;59.10;;;;;;6222018;28;23016;-83
2023/08/19 10:22:19;;;;;;;11.48;10.65;;;29.20;58.60;;;;;;6234402;28;20235;-85
2023/08/19 10:25:28;;;;;;;10.50;9.80;;;29.10;57.50;;;;;;6222411;28;20750;-82
2023/08/19 10:28:32;;;;;;;10.32;9.45;;;29.10;58.00;;;;;;6230366;28;20839;-85
2023/08/19 10:31:36;;;;;;;10.63;9.65;;;29.20;58.20;;;;;;6221523;28;20239;-82
2023/08/19 10:34:46;;;;;;;11.35;10.55;;;29.40;57.70;;;;;;6223766;28;20235;-83
2023/08/19 10:37:50;;;;;;;10.57;9.77;;;29.40;57.60;;;;;;6201349;28;20732;-83
2023/08/19 10:41:04;;;;;;;10.27;9.45;;;29.50;56.70;;;;;;6218213;28;20247;-83
2023/08/19 10:44:08;;;;;;;11.05;10.15;;;29.50;56.50;;;;;;6198465;28;20326;-85
2023/08/19 10:47:14;;;;;;;10.88;9.90;;;29.50;56.90;;;;;;6212243;28;20229;-80
2023/08/19 10:50:18;;;;;;;9.90;9.13;;;29.70;56.70;;;;;;6218488;28;20235;-82
2023/08/19 10:53:21;;;;;;;9.70;9.10;;;29.80;55.80;;;;;;6217947;28;20322;-83
2023/08/19 10:56:26;;;;;;;10.60;9.70;;;30.00;56.60;;;;;;6218814;28;20227;-80
2023/08/19 10:59:30;;;;;;;10.25;9.35;;;30.10;55.80;;;;;;6219043;28;20410;-83
2023/08/19 11:02:33;;;;;;;10.30;9.70;;;30.10;55.80;;;;;;6218808;28;20247;-80
2023/08/19 11:05:37;;;;;;;9.63;8.82;;;30.20;55.60;;;;;;6212749;28;20748;-83
2023/08/19 11:08:44;;;;;;;9.35;8.52;;;30.10;54.70;;;;;;6214040;28;20292;-80
2023/08/19 11:11:49;;;;;;;10.05;9.45;;;30.10;55.10;;;;;;6214101;28;20235;-83
2023/08/19 11:14:55;;;;;;;10.00;9.10;;;30.20;54.80;;;;;;6219554;28;20250;-80
2023/08/19 11:17:58;;;;;;;10.32;9.50;;;30.10;55.00;;;;;;6212065;28;20243;-80
2023/08/19 11:21:01;;;;;;;10.07;9.48;;;30.30;55.40;;;;;;6212709;28;20238;-82
2023/08/19 11:24:05;;;;;;;11.43;10.20;;;30.30;55.60;;;;;;6224416;28;20726;-80
2023/08/19 11:27:10;;;;;;;10.38;9.63;;;30.30;55.90;;;;;;6218698;28;20756;-81
2023/08/19 11:30:15;;;;;;;10.63;9.93;;;30.30;55.10;;;;;;6213569;28;20316;-82
2023/08/19 11:33:19;;;;;;;9.93;9.35;;;30.50;56.00;;;;;;6217460;28;20228;-80
2023/08/19 11:36:27;;;;;;;9.75;9.10;;;30.60;54.60;;;;;;6213899;28;20318;-83
2023/08/19 11:39:33;;;;;;;10.32;9.35;;;30.70;53.20;;;;;;6214801;28;20325;-82
2023/08/19 11:42:38;;;;;;;9.75;9.05;;;30.60;54.00;;;;;;6221638;28;20622;-81
2023/08/19 11:45:41;;;;;;;8.85;8.27;;;30.60;54.10;;;;;;6209439;28;20267;-82
2023/08/19 11:48:44;;;;;;;8.15;7.72;;;30.70;52.50;;;;;;6202295;28;20277;-84
2023/08/19 11:51:48;;;;;;;10.20;9.40;;;30.80;52.40;;;;;;6194984;28;20312;-82
2023/08/19 11:54:59;;;;;;;8.50;7.90;;;30.80;51.80;;;;;;6215735;28;20313;-81
2023/08/19 11:58:05;;;;;;;8.98;8.15;;;30.80;51.00;;;;;;6217793;28;20231;-82
2023/08/19 12:01:08;;;;;;;8.43;7.90;;;31.00;51.80;;;;;;6220671;28;20330;-82
2023/08/19 12:04:12;;;;;;;8.63;8.02;;;31.10;51.80;;;;;;6209715;28;20851;-83
2023/08/19 12:07:15;;;;;;;8.07;7.63;;;31.20;51.40;;;;;;6204099;28;20230;-82
2023/08/19 12:10:19;;;;;;;8.35;7.93;;;31.30;51.60;;;;;;6222211;28;20258;-82
2023/08/19 12:13:23;;;;;;;9.65;9.05;;;31.40;51.50;;;;;;6203722;28;20324;-81
2023/08/19 12:16:26;;;;;;;9.40;8.68;;;31.50;51.20;;;;;;6224367;28;20289;-81
2023/08/19 12:19:30;;;;;;;8.82;8.32;;;31.50;51.10;;;;;;6224759;28;20235;-83
2023/08/19 12:22:33;;;;;;;9.45;8.85;;;31.50;51.30;;;;;;6237630;28;20238;-81
2023/08/19 12:25:48;;;;;;;9.35;8.68;;;31.40;51.40;;;;;;6238277;28;20235;-85
2023/08/19 12:28:52;;;;;;;10.00;9.40;;;31.50;51.70;;;;;;6236959;28;20249;-83
2023/08/19 12:31:55;;;;;;;9.65;8.93;;;31.30;51.20;;;;;;6231248;28;20955;-83
2023/08/19 12:34:58;;;;;;;10.45;9.65;;;31.20;52.20;;;;;;6235848;28;20242;-82
2023/08/19 12:38:02;;;;;;;11.65;10.68;;;31.40;52.50;;;;;;6230509;28;20234;-84
2023/08/19 12:41:05;;;;;;;9.80;9.20;;;31.40;52.20;;;;;;6232245;28;20254;-84
2023/08/19 12:44:09;;;;;;;10.40;9.48;;;31.50;52.30;;;;;;6229710;28;20341;-82
2023/08/19 12:47:13;;;;;;;8.95;8.48;;;31.60;51.40;;;;;;6236884;28;20239;-82
2023/08/19 12:50:18;;;;;;;10.80;10.02;;;31.70;52.50;;;;;;6237295;28;20273;-84
2023/08/19 12:53:21;;;;;;;10.00;9.18;;;31.80;52.30;;;;;;6229783;28;20246;-80
2023/08/19 12:56:25;;;;;;;10.13;9.52;;;31.90;51.90;;;;;;6230505;28;20743;-80
2023/08/19 12:59:29;;;;;;;9.55;8.98;;;31.90;51.80;;;;;;6234487;28;20230;-81
2023/08/19 13:02:32;;;;;;;10.45;9.70;;;31.90;51.80;;;;;;6231298;28;20275;-83
2023/08/19 13:05:36;;;;;;;10.73;9.85;;;32.00;51.50;;;;;;6232744;28;20226;-81
2023/08/19 13:08:39;;;;;;;9.95;9.15;;;32.20;51.60;;;;;;6240782;28;20246;-84
2023/08/19 13:11:43;;;;;;;10.07;9.13;;;32.00;50.70;;;;;;6238800;28;20301;-81
2023/08/19 13:14:47;;;;;;;9.30;8.60;;;32.00;50.50;;;;;;6239954;28;20254;-81
2023/08/19 13:17:50;;;;;;;7.93;7.43;;;31.90;50.30;;;;;;6237264;28;20272;-84
2023/08/19 13:20:53;;;;;;;8.35;7.85;;;32.00;49.10;;;;;;6217081;28;20239;-82
2023/08/19 13:23:56;;;;;;;8.95;8.43;;;32.00;49.40;;;;;;6212527;28;20277;-81
2023/08/19 13:26:59;;;;;;;7.68;7.32;;;32.00;49.50;;;;;;6218168;28;20720;-83
2023/08/19 13:30:06;;;;;;;7.38;6.97;;;31.90;49.80;;;;;;6215060;28;20322;-83
2023/08/19 13:33:09;;;;;;;8.35;7.75;;;32.00;48.40;;;;;;6208525;28;20231;-83
2023/08/19 13:36:12;;;;;;;7.25;6.85;;;31.90;48.70;;;;;;6179356;28;20235;-83
2023/08/19 13:39:15;;;;;;;7.80;7.30;;;32.00;49.30;;;;;;6204165;28;20280;-80
2023/08/19 13:42:18;;;;;;;7.93;7.35;;;32.00;48.80;;;;;;6215287;28;20616;-85
2023/08/19 13:45:23;;;;;;;7.47;7.13;;;32.00;49.20;;;;;;6215622;28;20301;-81
2023/08/19 13:48:26;;;;;;;8.52;7.88;;;32.00;48.50;;;;;;6209360;28;20620;-82
2023/08/19 13:51:29;;;;;;;7.90;7.50;;;32.00;48.90;;;;;;6203811;28;20235;-83
2023/08/19 13:54:34;;;;;;;8.25;7.88;;;32.00;48.30;;;;;;6215365;28;20930;-83
2023/08/19 13:57:37;;;;;;;8.02;7.28;;;32.00;48.50;;;;;;6215801;28;20617;-84
2023/08/19 14:00:43;;;;;;;8.15;7.60;;;32.00;48.90;;;;;;6208831;28;20232;-82
2023/08/19 14:03:46;;;;;;;8.43;7.93;;;32.00;49.00;;;;;;6213584;28;20243;-82
2023/08/19 14:06:49;;;;;;;9.43;8.82;;;32.00;49.20;;;;;;6217119;28;20574;-79
2023/08/19 14:09:52;;;;;;;8.38;7.97;;;32.00;50.00;;;;;;6214347;28;20250;-83
2023/08/19 14:12:56;;;;;;;8.48;8.00;;;32.20;50.60;;;;;;6215340;28;20267;-83
2023/08/19 14:16:00;;;;;;;8.55;7.97;;;32.20;49.90;;;;;;6215072;28;20348;-84
2023/08/19 14:19:04;;;;;;;8.38;7.88;;;32.20;49.70;;;;;;6219527;28;20243;-82
2023/08/19 14:22:07;;;;;;;7.68;7.28;;;32.20;49.00;;;;;;6238263;28;20815;-81
2023/08/19 14:25:11;;;;;;;7.55;7.05;;;32.20;48.90;;;;;;6239930;28;20400;-84
2023/08/19 14:28:14;;;;;;;7.80;7.32;;;32.30;49.00;;;;;;6238960;28;20851;-83
2023/08/19 14:31:18;;;;;;;7.05;6.75;;;32.40;48.00;;;;;;6239473;28;20253;-82
2023/08/19 14:34:21;;;;;;;7.30;7.00;;;32.20;47.50;;;;;;6236435;28;20238;-81
2023/08/19 14:37:25;;;;;;;7.50;7.10;;;32.20;47.50;;;;;;6230432;28;20262;-83
2023/08/19 14:40:28;;;;;;;8.70;7.90;;;32.10;48.20;;;;;;6240113;28;20250;-83
2023/08/19 14:43:31;;;;;;;8.05;7.45;;;32.20;48.30;;;;;;6224769;28;20305;-84
2023/08/19 14:46:35;;;;;;;7.82;7.20;;;32.20;48.50;;;;;;6230055;28;20241;-83
2023/08/19 14:49:38;;;;;;;7.32;7.03;;;32.30;48.60;;;;;;6239017;28;20242;-83
2023/08/19 14:52:41;;;;;;;7.57;7.07;;;32.40;49.20;;;;;;6230116;28;20227;-83
2023/08/19 14:55:44;;;;;;;8.32;7.82;;;32.30;49.40;;;;;;6237906;28;20945;-83
2023/08/19 14:58:48;;;;;;;6.88;6.68;;;32.10;49.60;;;;;;6236882;28;20289;-83
2023/08/19 15:01:55;;;;;;;8.55;8.05;;;32.00;49.80;;;;;;6234414;28;20249;-84
2023/08/19 15:04:58;;;;;;;8.77;8.27;;;31.80;50.20;;;;;;6217279;28;20742;-85
2023/08/19 15:08:01;;;;;;;8.38;7.50;;;31.50;50.10;;;;;;6238159;28;20427;-84
2023/08/19 15:11:05;;;;;;;8.23;7.80;;;31.40;50.40;;;;;;6234227;28;20238;-80
2023/08/19 15:14:08;;;;;;;7.47;7.20;;;31.40;49.30;;;;;;6233966;28;20376;-81
2023/08/19 15:17:13;;;;;;;8.27;7.78;;;31.40;50.00;;;;;;6237783;28;20819;-82
2023/08/19 15:20:16;;;;;;;7.65;7.15;;;31.40;49.60;;;;;;6237181;28;20285;-82
2023/08/19 15:23:19;;;;;;;7.63;7.22;;;31.30;49.80;;;;;;6230706;28;20279;-83
2023/08/19 15:26:22;;;;;;;8.98;8.38;;;31.40;49.80;;;;;;6237359;28;20234;-85
2023/08/19 15:29:25;;;;;;;8.00;7.38;;;31.60;49.30;;;;;;6237451;28;20667;-83
2023/08/19 15:32:29;;;;;;;7.68;7.30;;;31.80;49.50;;;;;;6238352;28;20249;-83
2023/08/19 15:35:32;;;;;;;8.85;8.35;;;32.00;49.40;;;;;;6235076;28;20250;-81
2023/08/19 15:38:35;;;;;;;8.00;7.50;;;32.20;49.50;;;;;;6236944;28;20251;-85
2023/08/19 15:41:39;;;;;;;7.40;7.00;;;32.40;49.00;;;;;;6226362;28;20378;-82